sensor_id;sensor_type;location;lat;lon;timestamp;pressure;altitude;pressure_sealevel;temperature;humidity
37170;BME280;23062;13.952;100.608;2022-12-10T00:02:00;1010.76;;;29.63;65.91
37170;BME280;23062;13.952;100.608;2022-12-10T00:06:27;1010.85;;;29.63;66.21
37170;BME280;23062;13.952;100.608;2022-12-10T00:10:53;1010.90;;;29.63;66.31
37170;BME280;23062;13.952;100.608;2022-12-10T00:15:22;1011.02;;;29.64;66.30
37170;BME280;23062;13.952;100.608;2022-12-10T00:19:47;1011.08;;;29.64;66.22
37170;BME280;23062;13.952;100.608;2022-12-10T00:24:12;1011.13;;;29.65;66.29
37170;BME280;23062;13.952;100.608;2022-12-10T00:28:38;1011.22;;;29.63;65.74
37170;BME280;23062;13.952;100.608;2022-12-10T00:33:04;1011.28;;;29.58;66.03
37170;BME280;23062;13.952;100.608;2022-12-10T00:37:29;1011.38;;;29.61;66.20
37170;BME280;23062;13.952;100.608;2022-12-10T00:41:58;1011.45;;;29.56;66.34
37170;BME280;23062;13.952;100.608;2022-12-10T00:46:23;1011.53;;;29.61;66.31
37170;BME280;23062;13.952;100.608;2022-12-10T00:51:05;1011.54;;;29.64;66.28
37170;BME280;23062;13.952;100.608;2022-12-10T00:55:31;1011.60;;;29.68;66.05
37170;BME280;23062;13.952;100.608;2022-12-10T00:59:57;1011.62;;;29.75;64.94
37170;BME280;23062;13.952;100.608;2022-12-10T01:04:23;1011.63;;;29.83;64.55
37170;BME280;23062;13.952;100.608;2022-12-10T01:08:48;1011.69;;;29.84;64.42
37170;BME280;23062;13.952;100.608;2022-12-10T01:13:17;1011.77;;;29.87;63.59
37170;BME280;23062;13.952;100.608;2022-12-10T01:17:45;1011.80;;;29.93;63.35
37170;BME280;23062;13.952;100.608;2022-12-10T01:22:12;1011.87;;;29.96;62.91
37170;BME280;23062;13.952;100.608;2022-12-10T01:26:37;1011.83;;;30.07;62.67
37170;BME280;23062;13.952;100.608;2022-12-10T01:31:11;1011.86;;;30.09;62.41
37170;BME280;23062;13.952;100.608;2022-12-10T01:35:38;1011.94;;;30.16;61.47
37170;BME280;23062;13.952;100.608;2022-12-10T01:40:03;1011.95;;;30.20;61.36
37170;BME280;23062;13.952;100.608;2022-12-10T01:49:19;1012.06;;;30.31;59.95
37170;BME280;23062;13.952;100.608;2022-12-10T01:53:48;1012.06;;;30.35;59.45
37170;BME280;23062;13.952;100.608;2022-12-10T01:58:19;1012.11;;;30.43;59.30
37170;BME280;23062;13.952;100.608;2022-12-10T02:02:56;1012.07;;;30.49;59.36
37170;BME280;23062;13.952;100.608;2022-12-10T02:12:33;1012.04;;;30.59;58.53
37170;BME280;23062;13.952;100.608;2022-12-10T02:17:10;1012.01;;;30.61;58.36
37170;BME280;23062;13.952;100.608;2022-12-10T02:21:43;1012.06;;;30.66;58.63
37170;BME280;23062;13.952;100.608;2022-12-10T02:26:39;1012.03;;;30.71;58.28
37170;BME280;23062;13.952;100.608;2022-12-10T02:30:54;1012.03;;;30.80;57.79
37170;BME280;23062;13.952;100.608;2022-12-10T02:35:25;1012.02;;;30.89;57.43
37170;BME280;23062;13.952;100.608;2022-12-10T02:39:53;1012.09;;;30.91;57.27
37170;BME280;23062;13.952;100.608;2022-12-10T02:44:19;1012.09;;;30.96;56.90
37170;BME280;23062;13.952;100.608;2022-12-10T02:48:46;1012.06;;;31.01;56.99
37170;BME280;23062;13.952;100.608;2022-12-10T02:53:14;1012.05;;;31.08;56.08
37170;BME280;23062;13.952;100.608;2022-12-10T02:58:06;1012.02;;;31.16;55.53
37170;BME280;23062;13.952;100.608;2022-12-10T03:02:43;1012.00;;;31.19;55.75
37170;BME280;23062;13.952;100.608;2022-12-10T03:07:10;1011.93;;;31.26;55.46
37170;BME280;23062;13.952;100.608;2022-12-10T03:11:39;1011.87;;;31.32;54.83
37170;BME280;23062;13.952;100.608;2022-12-10T03:16:09;1011.86;;;31.33;54.58
37170;BME280;23062;13.952;100.608;2022-12-10T03:20:37;1011.88;;;31.36;54.95
37170;BME280;23062;13.952;100.608;2022-12-10T03:25:03;1011.89;;;31.38;54.80
37170;BME280;23062;13.952;100.608;2022-12-10T03:29:39;1011.81;;;31.37;54.99
37170;BME280;23062;13.952;100.608;2022-12-10T03:34:01;1011.79;;;31.34;56.00
37170;BME280;23062;13.952;100.608;2022-12-10T03:38:27;1011.78;;;31.35;55.82
37170;BME280;23062;13.952;100.608;2022-12-10T03:42:53;1011.76;;;31.32;55.86
37170;BME280;23062;13.952;100.608;2022-12-10T03:47:18;1011.71;;;31.30;56.22
37170;BME280;23062;13.952;100.608;2022-12-10T03:51:44;1011.66;;;31.31;56.30
37170;BME280;23062;13.952;100.608;2022-12-10T03:56:09;1011.54;;;31.27;56.39
37170;BME280;23062;13.952;100.608;2022-12-10T04:00:35;1011.50;;;31.29;56.26
37170;BME280;23062;13.952;100.608;2022-12-10T04:05:00;1011.39;;;31.31;56.32
37170;BME280;23062;13.952;100.608;2022-12-10T04:09:26;1011.30;;;31.35;56.09
37170;BME280;23062;13.952;100.608;2022-12-10T04:13:51;1011.19;;;31.36;56.06
37170;BME280;23062;13.952;100.608;2022-12-10T04:18:34;1011.10;;;31.39;55.80
37170;BME280;23062;13.952;100.608;2022-12-10T04:23:00;1011.05;;;31.43;55.96
37170;BME280;23062;13.952;100.608;2022-12-10T04:27:43;1010.98;;;31.46;55.68
37170;BME280;23062;13.952;100.608;2022-12-10T04:32:10;1010.92;;;31.45;56.04
37170;BME280;23062;13.952;100.608;2022-12-10T04:36:35;1010.86;;;31.50;55.41
37170;BME280;23062;13.952;100.608;2022-12-10T04:41:01;1010.82;;;31.62;54.47
37170;BME280;23062;13.952;100.608;2022-12-10T04:45:26;1010.72;;;31.62;54.31
37170;BME280;23062;13.952;100.608;2022-12-10T04:49:52;1010.65;;;31.67;53.59
37170;BME280;23062;13.952;100.608;2022-12-10T04:54:17;1010.52;;;31.84;51.23
37170;BME280;23062;13.952;100.608;2022-12-10T04:58:46;1010.44;;;31.80;51.60
37170;BME280;23062;13.952;100.608;2022-12-10T05:03:11;1010.41;;;31.73;53.25
37170;BME280;23062;13.952;100.608;2022-12-10T05:07:38;1010.35;;;31.71;54.08
37170;BME280;23062;13.952;100.608;2022-12-10T05:12:05;1010.31;;;31.69;54.50
37170;BME280;23062;13.952;100.608;2022-12-10T05:16:33;1010.24;;;31.74;54.72
37170;BME280;23062;13.952;100.608;2022-12-10T05:21:02;1010.23;;;31.76;54.81
37170;BME280;23062;13.952;100.608;2022-12-10T05:25:28;1010.09;;;31.79;54.51
37170;BME280;23062;13.952;100.608;2022-12-10T05:29:53;1010.02;;;31.84;54.59
37170;BME280;23062;13.952;100.608;2022-12-10T05:34:19;1009.94;;;31.90;54.58
37170;BME280;23062;13.952;100.608;2022-12-10T05:38:48;1009.90;;;31.97;54.07
37170;BME280;23062;13.952;100.608;2022-12-10T05:43:13;1009.75;;;31.98;53.92
37170;BME280;23062;13.952;100.608;2022-12-10T05:47:39;1009.66;;;32.01;54.04
37170;BME280;23062;13.952;100.608;2022-12-10T05:52:05;1009.59;;;32.01;53.96
37170;BME280;23062;13.952;100.608;2022-12-10T05:56:31;1009.51;;;31.99;53.81
37170;BME280;23062;13.952;100.608;2022-12-10T06:00:58;1009.41;;;31.98;53.85
37170;BME280;23062;13.952;100.608;2022-12-10T06:05:23;1009.29;;;32.02;53.51
37170;BME280;23062;13.952;100.608;2022-12-10T06:09:49;1009.19;;;31.96;53.79
37170;BME280;23062;13.952;100.608;2022-12-10T06:14:16;1009.12;;;31.98;53.77
37170;BME280;23062;13.952;100.608;2022-12-10T06:18:41;1009.02;;;31.93;53.90
37170;BME280;23062;13.952;100.608;2022-12-10T06:23:07;1008.96;;;31.94;53.82
37170;BME280;23062;13.952;100.608;2022-12-10T06:27:32;1008.81;;;31.98;53.47
37170;BME280;23062;13.952;100.608;2022-12-10T06:32:00;1008.70;;;31.97;53.60
37170;BME280;23062;13.952;100.608;2022-12-10T06:36:32;1008.59;;;31.95;53.63
37170;BME280;23062;13.952;100.608;2022-12-10T06:40:58;1008.51;;;31.99;52.75
37170;BME280;23062;13.952;100.608;2022-12-10T06:45:23;1008.41;;;32.00;51.84
37170;BME280;23062;13.952;100.608;2022-12-10T06:49:49;1008.37;;;31.97;51.85
37170;BME280;23062;13.952;100.608;2022-12-10T06:54:14;1008.31;;;31.93;51.82
37170;BME280;23062;13.952;100.608;2022-12-10T06:58:47;1008.21;;;31.92;51.76
37170;BME280;23062;13.952;100.608;2022-12-10T07:03:12;1008.14;;;31.98;51.79
37170;BME280;23062;13.952;100.608;2022-12-10T07:07:37;1008.03;;;32.03;51.54
37170;BME280;23062;13.952;100.608;2022-12-10T07:12:04;1007.98;;;32.06;51.88
37170;BME280;23062;13.952;100.608;2022-12-10T07:16:31;1007.93;;;32.08;51.82
37170;BME280;23062;13.952;100.608;2022-12-10T07:20:57;1007.93;;;32.07;51.85
37170;BME280;23062;13.952;100.608;2022-12-10T07:25:24;1007.87;;;32.15;51.89
37170;BME280;23062;13.952;100.608;2022-12-10T07:29:49;1007.76;;;32.15;51.16
37170;BME280;23062;13.952;100.608;2022-12-10T07:34:14;1007.72;;;32.18;51.17
37170;BME280;23062;13.952;100.608;2022-12-10T07:38:39;1007.68;;;32.18;51.12
37170;BME280;23062;13.952;100.608;2022-12-10T07:43:04;1007.61;;;32.30;50.23
37170;BME280;23062;13.952;100.608;2022-12-10T07:47:29;1007.53;;;32.10;51.17
37170;BME280;23062;13.952;100.608;2022-12-10T07:51:55;1007.53;;;32.13;51.10
37170;BME280;23062;13.952;100.608;2022-12-10T07:56:20;1007.50;;;32.14;51.03
37170;BME280;23062;13.952;100.608;2022-12-10T08:00:45;1007.45;;;32.08;51.29
37170;BME280;23062;13.952;100.608;2022-12-10T08:05:11;1007.40;;;32.06;51.31
37170;BME280;23062;13.952;100.608;2022-12-10T08:09:36;1007.40;;;32.09;51.12
37170;BME280;23062;13.952;100.608;2022-12-10T08:14:01;1007.33;;;32.12;51.30
37170;BME280;23062;13.952;100.608;2022-12-10T08:18:27;1007.31;;;32.09;51.69
37170;BME280;23062;13.952;100.608;2022-12-10T08:22:53;1007.27;;;32.14;51.74
37170;BME280;23062;13.952;100.608;2022-12-10T08:27:18;1007.28;;;32.12;52.66
37170;BME280;23062;13.952;100.608;2022-12-10T08:31:42;1007.29;;;32.16;52.82
37170;BME280;23062;13.952;100.608;2022-12-10T08:36:09;1007.28;;;32.19;52.46
37170;BME280;23062;13.952;100.608;2022-12-10T08:40:38;1007.32;;;32.20;52.69
37170;BME280;23062;13.952;100.608;2022-12-10T08:45:00;1007.26;;;32.19;52.64
37170;BME280;23062;13.952;100.608;2022-12-10T08:49:25;1007.24;;;32.19;51.92
37170;BME280;23062;13.952;100.608;2022-12-10T08:53:50;1007.18;;;32.23;52.18
37170;BME280;23062;13.952;100.608;2022-12-10T08:58:15;1007.14;;;32.24;52.55
37170;BME280;23062;13.952;100.608;2022-12-10T09:02:40;1007.21;;;32.24;52.46
37170;BME280;23062;13.952;100.608;2022-12-10T09:07:05;1007.17;;;32.22;52.53
37170;BME280;23062;13.952;100.608;2022-12-10T09:11:32;1007.16;;;32.21;52.01
37170;BME280;23062;13.952;100.608;2022-12-10T09:15:57;1007.21;;;32.21;51.46
37170;BME280;23062;13.952;100.608;2022-12-10T09:20:22;1007.18;;;32.23;51.00
37170;BME280;23062;13.952;100.608;2022-12-10T09:24:47;1007.24;;;32.20;50.98
37170;BME280;23062;13.952;100.608;2022-12-10T09:29:12;1007.28;;;32.16;51.34
37170;BME280;23062;13.952;100.608;2022-12-10T09:33:38;1007.31;;;32.16;51.26
37170;BME280;23062;13.952;100.608;2022-12-10T09:38:03;1007.35;;;32.19;51.17
37170;BME280;23062;13.952;100.608;2022-12-10T09:47:11;1007.39;;;32.14;51.23
37170;BME280;23062;13.952;100.608;2022-12-10T09:51:38;1007.37;;;32.11;51.32
37170;BME280;23062;13.952;100.608;2022-12-10T09:56:03;1007.41;;;32.09;51.47
37170;BME280;23062;13.952;100.608;2022-12-10T10:00:34;1007.44;;;32.06;51.52
37170;BME280;23062;13.952;100.608;2022-12-10T10:05:10;1007.49;;;32.09;51.47
37170;BME280;23062;13.952;100.608;2022-12-10T10:09:36;1007.51;;;32.08;51.80
37170;BME280;23062;13.952;100.608;2022-12-10T10:14:12;1007.57;;;32.02;52.03
37170;BME280;23062;13.952;100.608;2022-12-10T10:18:41;1007.64;;;32.03;51.94
37170;BME280;23062;13.952;100.608;2022-12-10T10:23:07;1007.74;;;31.99;52.10
37170;BME280;23062;13.952;100.608;2022-12-10T10:27:33;1007.83;;;31.96;52.50
37170;BME280;23062;13.952;100.608;2022-12-10T10:32:14;1007.91;;;31.94;52.69
37170;BME280;23062;13.952;100.608;2022-12-10T10:36:36;1008.02;;;31.93;52.61
37170;BME280;23062;13.952;100.608;2022-12-10T10:41:03;1008.06;;;31.91;52.59
37170;BME280;23062;13.952;100.608;2022-12-10T10:45:42;1008.11;;;31.91;52.49
37170;BME280;23062;13.952;100.608;2022-12-10T10:50:12;1008.19;;;31.89;52.69
37170;BME280;23062;13.952;100.608;2022-12-10T10:54:42;1008.30;;;31.88;52.72
37170;BME280;23062;13.952;100.608;2022-12-10T10:59:24;1008.33;;;31.88;52.73
37170;BME280;23062;13.952;100.608;2022-12-10T11:03:56;1008.47;;;31.86;53.26
37170;BME280;23062;13.952;100.608;2022-12-10T11:08:21;1008.52;;;31.87;53.46
37170;BME280;23062;13.952;100.608;2022-12-10T11:13:04;1008.60;;;31.86;53.53
37170;BME280;23062;13.952;100.608;2022-12-10T11:17:29;1008.61;;;31.83;53.54
37170;BME280;23062;13.952;100.608;2022-12-10T11:21:54;1008.69;;;31.84;53.57
37170;BME280;23062;13.952;100.608;2022-12-10T11:26:24;1008.80;;;31.85;53.52
37170;BME280;23062;13.952;100.608;2022-12-10T11:35:21;1008.91;;;31.84;53.62
37170;BME280;23062;13.952;100.608;2022-12-10T11:40:06;1008.99;;;31.84;53.62
37170;BME280;23062;13.952;100.608;2022-12-10T11:44:40;1009.01;;;31.81;53.58
37170;BME280;23062;13.952;100.608;2022-12-10T11:54:00;1009.14;;;31.81;53.49
37170;BME280;23062;13.952;100.608;2022-12-10T11:58:37;1009.17;;;31.79;53.60
37170;BME280;23062;13.952;100.608;2022-12-10T12:16:44;1009.45;;;31.78;53.88
37170;BME280;23062;13.952;100.608;2022-12-10T12:21:07;1009.49;;;31.79;53.91
37170;BME280;23062;13.952;100.608;2022-12-10T12:25:34;1009.54;;;31.78;53.90
37170;BME280;23062;13.952;100.608;2022-12-10T12:30:12;1009.65;;;31.78;53.89
37170;BME280;23062;13.952;100.608;2022-12-10T12:39:43;1009.73;;;31.78;54.01
37170;BME280;23062;13.952;100.608;2022-12-10T12:53:15;1009.81;;;31.76;54.25
37170;BME280;23062;13.952;100.608;2022-12-10T12:57:46;1009.80;;;31.75;54.36
37170;BME280;23062;13.952;100.608;2022-12-10T13:11:44;1010.09;;;31.74;54.67
37170;BME280;23062;13.952;100.608;2022-12-10T13:30:26;1010.24;;;32.00;54.10
37170;BME280;23062;13.952;100.608;2022-12-10T13:39:53;1010.38;;;31.99;54.28
37170;BME280;23062;13.952;100.608;2022-12-10T13:49:02;1010.53;;;31.98;54.30
37170;BME280;23062;13.952;100.608;2022-12-10T13:58:42;1010.61;;;31.96;54.86
37170;BME280;23062;13.952;100.608;2022-12-10T14:07:44;1010.71;;;31.93;54.96
37170;BME280;23062;13.952;100.608;2022-12-10T14:12:18;1010.73;;;31.92;54.74
37170;BME280;23062;13.952;100.608;2022-12-10T14:16:44;1010.72;;;31.91;54.91
37170;BME280;23062;13.952;100.608;2022-12-10T14:21:11;1010.76;;;31.91;54.91
37170;BME280;23062;13.952;100.608;2022-12-10T14:25:43;1010.76;;;31.89;54.98
37170;BME280;23062;13.952;100.608;2022-12-10T14:30:22;1010.77;;;31.89;55.27
37170;BME280;23062;13.952;100.608;2022-12-10T14:34:53;1010.80;;;31.88;55.21
37170;BME280;23062;13.952;100.608;2022-12-10T14:39:27;1010.83;;;31.87;55.38
37170;BME280;23062;13.952;100.608;2022-12-10T14:43:53;1010.85;;;31.86;55.49
37170;BME280;23062;13.952;100.608;2022-12-10T14:48:19;1010.89;;;31.85;55.55
37170;BME280;23062;13.952;100.608;2022-12-10T14:52:51;1010.97;;;31.84;55.33
37170;BME280;23062;13.952;100.608;2022-12-10T14:57:26;1010.94;;;31.83;55.40
37170;BME280;23062;13.952;100.608;2022-12-10T15:01:54;1010.92;;;31.82;55.46
37170;BME280;23062;13.952;100.608;2022-12-10T15:06:20;1010.92;;;31.82;55.62
37170;BME280;23062;13.952;100.608;2022-12-10T15:10:52;1010.92;;;31.81;55.96
37170;BME280;23062;13.952;100.608;2022-12-10T15:15:34;1010.92;;;31.81;55.99
37170;BME280;23062;13.952;100.608;2022-12-10T15:19:58;1010.88;;;31.80;55.80
37170;BME280;23062;13.952;100.608;2022-12-10T15:29:26;1010.92;;;31.78;55.75
37170;BME280;23062;13.952;100.608;2022-12-10T15:33:57;1010.95;;;31.78;55.64
37170;BME280;23062;13.952;100.608;2022-12-10T15:38:24;1010.90;;;31.77;55.56
37170;BME280;23062;13.952;100.608;2022-12-10T15:42:50;1010.88;;;31.75;55.71
37170;BME280;23062;13.952;100.608;2022-12-10T15:47:24;1010.87;;;31.73;55.29
37170;BME280;23062;13.952;100.608;2022-12-10T15:51:50;1010.88;;;31.73;55.77
37170;BME280;23062;13.952;100.608;2022-12-10T15:56:22;1010.89;;;31.72;55.32
37170;BME280;23062;13.952;100.608;2022-12-10T16:00:48;1010.95;;;31.72;55.38
37170;BME280;23062;13.952;100.608;2022-12-10T16:05:22;1010.89;;;31.70;55.32
37170;BME280;23062;13.952;100.608;2022-12-10T16:09:48;1010.94;;;31.71;55.54
37170;BME280;23062;13.952;100.608;2022-12-10T16:14:14;1010.84;;;31.70;55.54
37170;BME280;23062;13.952;100.608;2022-12-10T16:18:40;1010.77;;;31.69;55.56
37170;BME280;23062;13.952;100.608;2022-12-10T16:23:16;1010.79;;;31.69;55.68
37170;BME280;23062;13.952;100.608;2022-12-10T16:27:42;1010.72;;;31.68;55.29
37170;BME280;23062;13.952;100.608;2022-12-10T16:32:12;1010.72;;;31.67;55.51
37170;BME280;23062;13.952;100.608;2022-12-10T16:36:39;1010.71;;;31.67;55.63
37170;BME280;23062;13.952;100.608;2022-12-10T16:41:26;1010.71;;;31.66;55.70
37170;BME280;23062;13.952;100.608;2022-12-10T16:45:51;1010.73;;;31.65;55.75
37170;BME280;23062;13.952;100.608;2022-12-10T16:50:18;1010.66;;;31.65;55.89
37170;BME280;23062;13.952;100.608;2022-12-10T16:54:43;1010.63;;;31.64;55.69
37170;BME280;23062;13.952;100.608;2022-12-10T16:59:11;1010.63;;;31.64;55.79
37170;BME280;23062;13.952;100.608;2022-12-10T17:03:38;1010.60;;;31.64;55.69
37170;BME280;23062;13.952;100.608;2022-12-10T17:08:03;1010.55;;;31.62;55.27
37170;BME280;23062;13.952;100.608;2022-12-10T17:12:32;1010.50;;;31.60;55.13
37170;BME280;23062;13.952;100.608;2022-12-10T17:16:59;1010.48;;;31.60;55.15
37170;BME280;23062;13.952;100.608;2022-12-10T17:21:26;1010.46;;;31.59;55.00
37170;BME280;23062;13.952;100.608;2022-12-10T17:25:51;1010.45;;;31.58;55.02
37170;BME280;23062;13.952;100.608;2022-12-10T17:30:20;1010.53;;;31.57;55.10
37170;BME280;23062;13.952;100.608;2022-12-10T17:34:46;1010.47;;;31.56;55.26
37170;BME280;23062;13.952;100.608;2022-12-10T17:39:15;1010.47;;;31.56;55.28
37170;BME280;23062;13.952;100.608;2022-12-10T17:43:43;1010.47;;;31.55;55.28
37170;BME280;23062;13.952;100.608;2022-12-10T17:48:16;1010.41;;;31.54;55.25
37170;BME280;23062;13.952;100.608;2022-12-10T17:52:42;1010.47;;;31.53;55.12
37170;BME280;23062;13.952;100.608;2022-12-10T17:57:20;1010.44;;;31.51;53.95
37170;BME280;23062;13.952;100.608;2022-12-10T18:01:43;1010.39;;;31.52;54.34
37170;BME280;23062;13.952;100.608;2022-12-10T18:06:21;1010.36;;;31.51;54.75
37170;BME280;23062;13.952;100.608;2022-12-10T18:10:44;1010.35;;;31.51;54.84
37170;BME280;23062;13.952;100.608;2022-12-10T18:15:12;1010.35;;;31.50;54.94
37170;BME280;23062;13.952;100.608;2022-12-10T18:19:37;1010.34;;;31.48;55.01
37170;BME280;23062;13.952;100.608;2022-12-10T18:24:02;1010.32;;;31.48;55.15
37170;BME280;23062;13.952;100.608;2022-12-10T18:32:56;1010.25;;;31.46;55.31
37170;BME280;23062;13.952;100.608;2022-12-10T18:37:22;1010.16;;;31.46;55.38
37170;BME280;23062;13.952;100.608;2022-12-10T18:41:48;1010.15;;;31.45;55.46
37170;BME280;23062;13.952;100.608;2022-12-10T18:46:17;1010.11;;;31.44;55.55
37170;BME280;23062;13.952;100.608;2022-12-10T18:50:42;1010.09;;;31.44;55.69
37170;BME280;23062;13.952;100.608;2022-12-10T18:55:10;1010.09;;;31.43;55.79
37170;BME280;23062;13.952;100.608;2022-12-10T18:59:37;1010.02;;;31.41;55.85
37170;BME280;23062;13.952;100.608;2022-12-10T19:04:06;1009.99;;;31.40;56.00
37170;BME280;23062;13.952;100.608;2022-12-10T19:08:34;1009.94;;;31.39;56.08
37170;BME280;23062;13.952;100.608;2022-12-10T19:13:00;1009.96;;;31.39;56.12
37170;BME280;23062;13.952;100.608;2022-12-10T19:17:28;1009.95;;;31.38;56.24
37170;BME280;23062;13.952;100.608;2022-12-10T19:21:54;1009.93;;;31.37;56.25
37170;BME280;23062;13.952;100.608;2022-12-10T19:26:31;1009.87;;;31.36;56.22
37170;BME280;23062;13.952;100.608;2022-12-10T19:30:57;1009.78;;;31.35;56.23
37170;BME280;23062;13.952;100.608;2022-12-10T19:35:29;1009.73;;;31.34;56.15
37170;BME280;23062;13.952;100.608;2022-12-10T19:39:56;1009.73;;;31.34;56.11
37170;BME280;23062;13.952;100.608;2022-12-10T19:44:21;1009.62;;;31.33;56.20
37170;BME280;23062;13.952;100.608;2022-12-10T19:48:47;1009.60;;;31.32;56.23
37170;BME280;23062;13.952;100.608;2022-12-10T19:53:12;1009.60;;;31.32;56.20
37170;BME280;23062;13.952;100.608;2022-12-10T19:57:41;1009.55;;;31.30;56.21
37170;BME280;23062;13.952;100.608;2022-12-10T20:02:10;1009.51;;;31.30;56.20
37170;BME280;23062;13.952;100.608;2022-12-10T20:06:38;1009.54;;;31.29;56.25
37170;BME280;23062;13.952;100.608;2022-12-10T20:11:04;1009.52;;;31.28;56.31
37170;BME280;23062;13.952;100.608;2022-12-10T20:15:29;1009.50;;;31.27;56.32
37170;BME280;23062;13.952;100.608;2022-12-10T20:19:54;1009.56;;;31.26;56.26
37170;BME280;23062;13.952;100.608;2022-12-10T20:24:23;1009.55;;;31.25;56.32
37170;BME280;23062;13.952;100.608;2022-12-10T20:28:49;1009.54;;;31.25;56.24
37170;BME280;23062;13.952;100.608;2022-12-10T20:33:22;1009.56;;;31.23;56.09
37170;BME280;23062;13.952;100.608;2022-12-10T20:37:50;1009.64;;;31.22;56.00
37170;BME280;23062;13.952;100.608;2022-12-10T20:42:21;1009.63;;;31.22;55.97
37170;BME280;23062;13.952;100.608;2022-12-10T20:46:50;1009.64;;;31.20;55.95
37170;BME280;23062;13.952;100.608;2022-12-10T20:51:17;1009.61;;;31.20;55.95
37170;BME280;23062;13.952;100.608;2022-12-10T20:55:42;1009.65;;;31.17;55.96
37170;BME280;23062;13.952;100.608;2022-12-10T21:00:14;1009.76;;;31.19;55.93
37170;BME280;23062;13.952;100.608;2022-12-10T21:04:38;1009.72;;;31.18;55.93
37170;BME280;23062;13.952;100.608;2022-12-10T21:09:04;1009.71;;;31.16;55.90
37170;BME280;23062;13.952;100.608;2022-12-10T21:13:29;1009.79;;;31.14;55.86
37170;BME280;23062;13.952;100.608;2022-12-10T21:17:54;1009.81;;;31.05;55.81
37170;BME280;23062;13.952;100.608;2022-12-10T21:22:24;1009.77;;;30.96;55.56
37170;BME280;23062;13.952;100.608;2022-12-10T21:26:52;1009.79;;;30.88;55.60
37170;BME280;23062;13.952;100.608;2022-12-10T21:31:22;1009.77;;;30.85;55.72
37170;BME280;23062;13.952;100.608;2022-12-10T21:35:47;1009.76;;;30.81;55.76
37170;BME280;23062;13.952;100.608;2022-12-10T21:40:16;1009.75;;;30.76;55.84
37170;BME280;23062;13.952;100.608;2022-12-10T21:44:41;1009.75;;;30.69;55.89
37170;BME280;23062;13.952;100.608;2022-12-10T21:49:06;1009.78;;;30.66;56.03
37170;BME280;23062;13.952;100.608;2022-12-10T21:53:32;1009.87;;;30.64;56.08
37170;BME280;23062;13.952;100.608;2022-12-10T21:57:57;1009.85;;;30.60;56.02
37170;BME280;23062;13.952;100.608;2022-12-10T22:02:22;1009.88;;;30.55;56.17
37170;BME280;23062;13.952;100.608;2022-12-10T22:06:48;1009.91;;;30.57;56.17
37170;BME280;23062;13.952;100.608;2022-12-10T22:11:16;1009.96;;;30.58;56.15
37170;BME280;23062;13.952;100.608;2022-12-10T22:15:42;1010.01;;;30.57;56.10
37170;BME280;23062;13.952;100.608;2022-12-10T22:20:09;1010.07;;;30.57;56.03
37170;BME280;23062;13.952;100.608;2022-12-10T22:24:34;1010.14;;;30.52;56.06
37170;BME280;23062;13.952;100.608;2022-12-10T22:28:59;1010.11;;;30.46;56.12
37170;BME280;23062;13.952;100.608;2022-12-10T22:33:24;1010.19;;;30.45;56.63
37170;BME280;23062;13.952;100.608;2022-12-10T22:37:53;1010.23;;;30.43;57.56
37170;BME280;23062;13.952;100.608;2022-12-10T22:42:18;1010.29;;;30.43;58.41
37170;BME280;23062;13.952;100.608;2022-12-10T22:46:44;1010.31;;;30.37;59.07
37170;BME280;23062;13.952;100.608;2022-12-10T22:51:12;1010.38;;;30.31;58.89
37170;BME280;23062;13.952;100.608;2022-12-10T22:55:37;1010.40;;;30.29;59.55
37170;BME280;23062;13.952;100.608;2022-12-10T23:00:03;1010.44;;;30.09;60.95
37170;BME280;23062;13.952;100.608;2022-12-10T23:04:29;1010.47;;;29.64;61.29
37170;BME280;23062;13.952;100.608;2022-12-10T23:08:54;1010.61;;;29.56;62.03
37170;BME280;23062;13.952;100.608;2022-12-10T23:13:19;1010.70;;;29.42;61.83
37170;BME280;23062;13.952;100.608;2022-12-10T23:17:47;1010.68;;;29.38;61.83
37170;BME280;23062;13.952;100.608;2022-12-10T23:22:13;1010.77;;;29.27;62.14
37170;BME280;23062;13.952;100.608;2022-12-10T23:26:38;1010.84;;;29.21;62.48
37170;BME280;23062;13.952;100.608;2022-12-10T23:31:04;1010.87;;;29.18;62.52
37170;BME280;23062;13.952;100.608;2022-12-10T23:35:30;1010.97;;;29.13;62.41
37170;BME280;23062;13.952;100.608;2022-12-10T23:39:55;1011.01;;;29.14;62.36
37170;BME280;23062;13.952;100.608;2022-12-10T23:44:20;1011.10;;;29.11;62.18
37170;BME280;23062;13.952;100.608;2022-12-10T23:48:47;1011.17;;;29.05;62.04
37170;BME280;23062;13.952;100.608;2022-12-10T23:53:15;1011.27;;;29.10;61.65
37170;BME280;23062;13.952;100.608;2022-12-10T23:57:40;1011.29;;;29.08;62.31
